Time;durP1;ratioP1;P1;durP2;ratioP2;P2;SDS_P1;SDS_P2;PMS_P1;PMS_P2;Temp;Humidity;BMP_temperature;BMP_pressure;BME280_temperature;BME280_humidity;BME280_pressure;Samples;Min_cycle;Max_cycle;Signal;HPM_P1;HPM_P2
2021/06/05 00:00:44;;;;;;;10.02;6.13;;;;;;;13.23;89.50;97720.50;4945483;28;20459;-61
2021/06/05 00:03:11;;;;;;;7.78;5.80;;;;;;;13.28;89.00;97711.84;4947156;28;20035;-61
2021/06/05 00:05:58;;;;;;;7.35;6.22;;;;;;;13.24;89.05;97726.88;4946668;28;20094;-62
2021/06/05 00:08:26;;;;;;;8.75;6.57;;;;;;;13.18;89.03;97718.03;4946784;28;20479;-61
2021/06/05 00:10:56;;;;;;;10.38;6.47;;;;;;;13.15;89.29;97724.34;4946322;28;20081;-61
2021/06/05 00:13:28;;;;;;;6.85;5.72;;;;;;;13.08;88.98;97721.44;4947221;28;20066;-60
2021/06/05 00:15:55;;;;;;;7.53;6.15;;;;;;;13.10;88.83;97738.53;4946740;28;20719;-61
2021/06/05 00:18:21;;;;;;;7.32;5.53;;;;;;;12.98;89.16;97719.22;4946868;28;20063;-61
2021/06/05 00:20:47;;;;;;;5.78;5.05;;;;;;;13.06;88.56;97718.22;4946414;28;20098;-60
2021/06/05 00:23:16;;;;;;;7.60;5.60;;;;;;;12.95;89.00;97714.41;4945764;28;20087;-61
2021/06/05 00:25:42;;;;;;;7.25;4.95;;;;;;;12.89;88.97;97713.13;4946611;28;20050;-60
2021/06/05 00:28:09;;;;;;;6.40;5.25;;;;;;;12.89;89.02;97701.19;4946755;28;20027;-61
2021/06/05 00:30:35;;;;;;;8.25;5.30;;;;;;;12.85;88.66;97698.31;4946332;28;20035;-60
2021/06/05 00:33:01;;;;;;;9.95;5.22;;;;;;;11.99;89.56;97601.78;4946617;28;20039;-61
2021/06/05 00:35:28;;;;;;;9.68;5.90;;;;;;;12.70;90.39;97695.66;4946458;28;20490;-60
2021/06/05 00:37:54;;;;;;;6.68;5.18;;;;;;;12.64;90.55;97703.50;4946296;28;20093;-61
2021/06/05 00:40:23;;;;;;;7.20;5.60;;;;;;;12.58;89.84;97677.19;4945891;28;20043;-63
2021/06/05 00:42:49;;;;;;;7.00;5.15;;;;;;;12.70;88.47;97698.44;4945846;28;20035;-60
2021/06/05 00:45:17;;;;;;;8.10;5.35;;;;;;;12.48;89.67;97700.00;4945868;28;20042;-63
2021/06/05 00:47:43;;;;;;;5.97;5.28;;;;;;;12.38;90.22;97706.13;4946288;28;20039;-61
2021/06/05 00:50:11;;;;;;;9.70;5.65;;;;;;;12.37;90.93;97696.19;4944046;29;20415;-61
2021/06/05 00:52:37;;;;;;;10.45;5.80;;;;;;;12.19;91.78;97675.56;4944823;28;20046;-61
2021/06/05 00:55:06;;;;;;;6.50;5.90;;;;;;;12.08;92.39;97647.59;4944460;28;20023;-63
2021/06/05 00:57:32;;;;;;;7.25;5.78;;;;;;;12.50;90.56;97686.56;4946334;28;20087;-61
2021/06/05 00:59:57;;;;;;;6.13;4.93;;;;;;;12.02;89.80;97609.38;4960353;28;20109;-62
2021/06/05 01:02:23;;;;;;;6.88;5.57;;;;;;;12.44;90.11;97692.78;4963307;28;20545;-61
2021/06/05 01:04:48;;;;;;;7.80;5.28;;;;;;;12.22;91.35;97691.50;4965013;28;20034;-61
2021/06/05 01:07:27;;;;;;;8.25;5.85;;;;;;;12.27;91.67;97688.44;4963435;28;20479;-61
2021/06/05 01:10:00;;;;;;;6.57;4.93;;;;;;;12.23;91.13;97687.59;4963573;28;20042;-61
2021/06/05 01:12:51;;;;;;;9.07;6.00;;;;;;;11.73;90.67;97612.72;4963208;28;20042;-62
2021/06/05 01:15:28;;;;;;;9.38;5.50;;;;;;;12.02;91.48;97665.72;4964701;28;20053;-63
2021/06/05 01:17:59;;;;;;;10.10;6.00;;;;;;;12.18;90.92;97685.09;4965071;28;20466;-60
2021/06/05 01:20:50;;;;;;;8.73;5.40;;;;;;;11.87;90.82;97657.47;4964872;28;20043;-60
2021/06/05 01:23:34;;;;;;;10.82;6.93;;;;;;;12.05;91.10;97678.06;4963468;28;20062;-62
2021/06/05 01:26:21;;;;;;;11.63;6.25;;;;;;;12.01;91.35;97677.19;4963105;28;20038;-63
2021/06/05 01:28:56;;;;;;;8.95;6.20;;;;;;;11.60;92.38;97627.88;4964853;28;20490;-62
2021/06/05 01:31:29;;;;;;;7.18;5.68;;;;;;;11.92;92.41;97682.13;4965151;28;20050;-61
2021/06/05 01:33:55;;;;;;;6.93;5.23;;;;;;;11.92;92.05;97680.16;4964869;28;20117;-62
2021/06/05 01:36:23;;;;;;;8.45;5.10;;;;;;;11.88;92.38;97686.81;4964953;28;20043;-62
2021/06/05 01:38:58;;;;;;;7.72;5.65;;;;;;;11.86;92.21;97683.59;4963239;28;20399;-61
2021/06/05 01:41:26;;;;;;;9.35;5.47;;;;;;;11.87;91.79;97685.22;4963124;28;20716;-60
2021/06/05 01:43:53;;;;;;;9.02;5.47;;;;;;;11.33;90.88;97601.09;4963374;28;20402;-60
2021/06/05 01:46:22;;;;;;;7.43;6.15;;;;;;;11.85;91.35;97676.44;4965009;28;20247;-60
2021/06/05 01:48:47;;;;;;;6.95;5.22;;;;;;;11.84;91.68;97680.38;4965210;28;20049;-61
2021/06/05 01:51:17;;;;;;;6.53;5.22;;;;;;;11.76;91.96;97678.63;4964340;28;20486;-62
2021/06/05 01:53:53;;;;;;;7.53;4.97;;;;;;;11.68;92.38;97674.84;4964683;28;20060;-60
2021/06/05 01:56:43;;;;;;;9.88;6.45;;;;;;;11.69;92.97;97675.69;4964663;28;20118;-61
2021/06/05 01:59:11;;;;;;;10.13;5.75;;;;;;;11.46;94.15;97658.06;4956871;28;20031;-63
2021/06/05 02:01:37;;;;;;;6.78;5.43;;;;;;;11.33;93.56;97620.50;4943567;29;20061;-61
2021/06/05 02:04:04;;;;;;;6.63;5.18;;;;;;;11.66;93.71;97674.44;4945410;28;20498;-62
2021/06/05 02:06:29;;;;;;;6.97;5.85;;;;;;;11.64;93.80;97675.94;4945295;28;20450;-61
2021/06/05 02:08:56;;;;;;;7.95;6.05;;;;;;;11.73;93.84;97671.81;4943310;28;20070;-61
2021/06/05 02:11:26;;;;;;;8.65;6.65;;;;;;;11.76;92.86;97670.28;4942900;29;20174;-61
2021/06/05 02:14:05;;;;;;;7.93;5.78;;;;;;;11.76;92.59;97671.06;4945626;28;20403;-62
2021/06/05 02:16:42;;;;;;;7.45;5.13;;;;;;;11.63;92.64;97675.13;4943628;29;20047;-63
2021/06/05 02:19:20;;;;;;;9.95;5.65;;;;;;;11.67;92.83;97678.00;4944985;28;20434;-63
2021/06/05 02:21:47;;;;;;;8.25;5.85;;;;;;;11.50;92.38;97675.59;4944975;28;20138;-61
2021/06/05 02:24:19;;;;;;;9.80;6.55;;;;;;;11.48;93.00;97673.19;4945524;28;20039;-60
2021/06/05 02:26:45;;;;;;;7.05;6.30;;;;;;;11.21;92.29;97617.84;4944782;28;20055;-60
2021/06/05 02:29:14;;;;;;;6.20;5.60;;;;;;;11.53;92.13;97667.38;4943536;28;20549;-60
2021/06/05 02:31:40;;;;;;;8.55;5.57;;;;;;;11.39;91.21;97649.56;4944515;28;20070;-60
2021/06/05 02:34:11;;;;;;;8.77;5.45;;;;;;;11.43;91.88;97669.91;4944775;28;20042;-60
2021/06/05 02:36:39;;;;;;;8.82;5.82;;;;;;;11.18;91.38;97624.09;4944889;28;20615;-61
2021/06/05 02:39:06;;;;;;;11.52;5.22;;;;;;;10.50;90.81;97510.81;4944889;28;20503;-62
2021/06/05 02:41:32;;;;;;;9.75;5.65;;;;;;;11.32;91.69;97646.63;4944544;28;20050;-60
2021/06/05 02:43:58;;;;;;;8.30;5.68;;;;;;;11.00;92.43;97601.50;4943641;29;20027;-61
2021/06/05 02:46:37;;;;;;;6.63;5.70;;;;;;;11.11;92.77;97612.84;4945731;28;20089;-60
2021/06/05 02:49:06;;;;;;;8.68;5.30;;;;;;;11.11;91.66;97643.34;4963158;28;20747;-61
2021/06/05 02:51:39;;;;;;;6.07;5.35;;;;;;;11.44;92.53;97671.50;4946613;28;20050;-60
2021/06/05 02:54:06;;;;;;;7.15;5.47;;;;;;;11.42;92.71;97662.72;4948397;28;20039;-62
2021/06/05 02:56:32;;;;;;;9.65;5.80;;;;;;;11.38;91.66;97668.19;4946345;29;20169;-60
2021/06/05 02:58:57;;;;;;;7.95;4.85;;;;;;;11.27;91.24;97649.69;4954136;28;20109;-60
2021/06/05 03:01:23;;;;;;;8.82;5.63;;;;;;;11.22;91.29;97644.41;4966849;28;20046;-61
2021/06/05 03:03:49;;;;;;;8.23;5.28;;;;;;;11.27;92.21;97660.78;4967911;28;20037;-61
2021/06/05 03:06:15;;;;;;;8.45;5.65;;;;;;;10.69;92.92;97580.16;4967205;28;20097;-60
2021/06/05 03:08:42;;;;;;;10.85;5.25;;;;;;;11.18;92.40;97635.19;4964847;28;20450;-61
2021/06/05 03:11:12;;;;;;;7.45;5.25;;;;;;;11.44;90.58;97671.50;4966659;28;20584;-60
2021/06/05 03:13:38;;;;;;;6.47;5.10;;;;;;;10.90;90.31;97590.97;4967105;28;20027;-61
2021/06/05 03:16:04;;;;;;;6.22;5.43;;;;;;;11.42;90.25;97651.63;4966747;28;20093;-60
2021/06/05 03:18:29;;;;;;;9.43;5.82;;;;;;;11.41;90.16;97655.56;4966882;28;20046;-61
2021/06/05 03:20:56;;;;;;;7.80;5.75;;;;;;;11.56;90.13;97674.16;4966670;28;20039;-61
2021/06/05 03:23:23;;;;;;;7.05;6.00;;;;;;;11.21;89.67;97601.19;4967255;28;20065;-59
2021/06/05 03:25:51;;;;;;;16.27;6.65;;;;;;;11.78;89.25;97665.16;4967009;28;20042;-61
2021/06/05 03:28:18;;;;;;;8.25;5.25;;;;;;;11.80;89.50;97662.84;4965697;28;20043;-62
2021/06/05 03:30:43;;;;;;;12.05;5.35;;;;;;;11.79;89.40;97652.91;4966143;28;20482;-62
2021/06/05 03:33:09;;;;;;;13.93;5.47;;;;;;;11.97;89.08;97673.53;4967055;28;20065;-62
2021/06/05 03:35:35;;;;;;;7.20;5.47;;;;;;;12.10;88.65;97675.00;4966039;28;20054;-62
2021/06/05 03:38:01;;;;;;;6.00;5.28;;;;;;;11.86;87.72;97603.09;4965016;28;20031;-62
2021/06/05 03:40:30;;;;;;;6.40;4.55;;;;;;;11.76;88.27;97601.69;4964510;28;20038;-62
2021/06/05 03:42:56;;;;;;;8.18;5.85;;;;;;;12.42;86.86;97667.31;4966791;28;20062;-63
2021/06/05 03:45:22;;;;;;;6.15;4.93;;;;;;;12.42;86.50;97668.13;4966614;28;20097;-61
2021/06/05 03:47:48;;;;;;;8.55;4.90;;;;;;;12.15;87.68;97614.41;4965472;28;20030;-61
2021/06/05 03:50:21;;;;;;;11.50;5.22;;;;;;;12.26;86.99;97609.06;4964878;28;20046;-62
2021/06/05 03:52:47;;;;;;;6.40;4.53;;;;;;;11.91;86.10;97520.31;4965079;28;20508;-61
2021/06/05 03:55:13;;;;;;;9.30;5.50;;;;;;;12.11;85.02;97529.41;4966015;28;20045;-62
2021/06/05 03:57:39;;;;;;;8.07;4.90;;;;;;;12.92;85.04;97648.41;4966140;28;20038;-62
2021/06/05 04:00:08;;;;;;;5.70;4.82;;;;;;;11.13;84.33;97391.50;4950952;28;20037;-62
2021/06/05 04:02:33;;;;;;;5.50;4.30;;;;;;;13.15;84.35;97656.78;4945639;28;20498;-63
2021/06/05 04:04:59;;;;;;;6.60;4.55;;;;;;;13.29;84.23;97657.81;4947052;28;20510;-61
2021/06/05 04:07:24;;;;;;;5.75;4.65;;;;;;;13.06;84.00;97608.94;4946700;28;20035;-61
2021/06/05 04:09:50;;;;;;;7.80;4.53;;;;;;;12.89;83.69;97587.19;4946834;28;20031;-62
2021/06/05 04:12:15;;;;;;;7.28;5.25;;;;;;;12.61;82.83;97534.69;4944958;29;20415;-61
2021/06/05 04:14:42;;;;;;;6.13;4.88;;;;;;;13.57;83.46;97652.69;4944905;28;20089;-60
2021/06/05 04:17:09;;;;;;;6.32;4.43;;;;;;;13.21;83.29;97605.22;4944888;28;20031;-61
2021/06/05 04:19:35;;;;;;;5.38;4.75;;;;;;;13.78;83.09;97657.78;4944453;28;20050;-63
2021/06/05 04:22:02;;;;;;;5.13;4.63;;;;;;;13.90;82.10;97668.69;4946693;28;20035;-65
2021/06/05 04:24:27;;;;;;;6.50;4.88;;;;;;;13.02;81.98;97531.03;4946781;28;20031;-64
2021/06/05 04:26:53;;;;;;;6.07;4.82;;;;;;;13.75;80.86;97613.97;4944698;29;20102;-66
2021/06/05 04:29:19;;;;;;;8.50;5.35;;;;;;;14.25;79.97;97649.69;4946267;28;20039;-63
2021/06/05 04:31:45;;;;;;;6.45;4.88;;;;;;;13.82;80.32;97599.31;4944648;29;20050;-63
2021/06/05 04:34:11;;;;;;;9.50;5.18;;;;;;;14.44;79.23;97655.09;4946706;28;20031;-64
2021/06/05 04:36:36;;;;;;;9.02;5.05;;;;;;;13.79;79.32;97552.75;4944530;29;20047;-63
2021/06/05 04:39:03;;;;;;;9.85;4.93;;;;;;;14.67;78.73;97646.56;4946532;28;20512;-62
2021/06/05 04:41:29;;;;;;;7.00;5.25;;;;;;;14.80;78.60;97636.75;4946217;28;20683;-62
2021/06/05 04:43:54;;;;;;;5.15;4.65;;;;;;;14.20;77.76;97515.41;4946026;28;20035;-64
2021/06/05 04:46:20;;;;;;;6.88;5.00;;;;;;;14.78;76.06;97584.13;4945944;28;20130;-62
2021/06/05 04:48:46;;;;;;;6.57;5.25;;;;;;;14.74;76.31;97555.44;4945707;28;20031;-60
2021/06/05 04:51:13;;;;;;;6.65;4.75;;;;;;;15.18;75.39;97614.78;4943878;28;22007;-61
2021/06/05 04:53:39;;;;;;;9.63;5.32;;;;;;;15.10;75.41;97567.66;4944013;28;20038;-61
2021/06/05 04:56:06;;;;;;;6.25;5.50;;;;;;;15.77;74.62;97636.00;4944116;28;20046;-61
2021/06/05 04:58:31;;;;;;;7.63;5.30;;;;;;;15.95;73.61;97628.50;4946250;28;20035;-61
2021/06/05 05:00:59;;;;;;;8.98;5.53;;;;;;;16.03;73.09;97632.94;4964821;28;20395;-63
2021/06/05 05:03:27;;;;;;;6.57;5.22;;;;;;;16.07;73.01;97628.19;4964987;28;20042;-61
2021/06/05 05:05:59;;;;;;;6.85;5.70;;;;;;;15.31;74.46;97573.41;4964534;28;20038;-61
2021/06/05 05:08:25;;;;;;;11.20;5.40;;;;;;;15.72;75.43;97633.56;4965002;28;20031;-62
2021/06/05 05:10:52;;;;;;;8.75;5.72;;;;;;;15.99;73.52;97615.38;4964442;28;20042;-63
2021/06/05 05:13:26;;;;;;;10.20;5.40;;;;;;;16.19;73.09;97611.06;4962470;28;20034;-60
2021/06/05 05:15:53;;;;;;;11.50;4.90;;;;;;;16.56;71.55;97628.41;4964256;28;20494;-60
2021/06/05 05:18:20;;;;;;;6.40;5.43;;;;;;;16.71;71.23;97622.84;4963736;28;20050;-60
2021/06/05 05:20:45;;;;;;;6.90;5.45;;;;;;;16.80;70.65;97617.66;4963716;28;20039;-61
2021/06/05 05:23:12;;;;;;;8.07;5.20;;;;;;;17.03;69.94;97623.69;4962318;28;20557;-61
2021/06/05 05:25:40;;;;;;;5.38;4.82;;;;;;;17.07;70.36;97618.91;4961995;28;20031;-61
2021/06/05 05:28:07;;;;;;;9.90;5.53;;;;;;;17.31;68.94;97612.50;4962303;28;20038;-62
2021/06/05 05:30:40;;;;;;;11.73;5.65;;;;;;;17.56;68.58;97614.09;4962176;28;20528;-61
2021/06/05 05:33:06;;;;;;;6.07;5.57;;;;;;;17.60;68.06;97614.91;4978781;28;20051;-61
2021/06/05 05:35:33;;;;;;;15.48;4.80;;;;;;;17.48;68.78;97589.31;4963322;28;20500;-61
2021/06/05 05:38:00;;;;;;;8.05;5.80;;;;;;;17.78;68.41;97609.28;4963505;28;20096;-61
2021/06/05 05:40:27;;;;;;;6.80;5.38;;;;;;;18.00;68.71;97616.44;4963298;28;20042;-61
2021/06/05 05:42:53;;;;;;;5.47;4.97;;;;;;;17.96;68.66;97608.03;4962905;28;20526;-63
2021/06/05 05:45:21;;;;;;;9.13;5.13;;;;;;;17.84;69.77;97610.47;4964061;28;20057;-61
2021/06/05 05:47:47;;;;;;;9.20;5.95;;;;;;;18.13;68.61;97609.16;4964508;28;20039;-61
2021/06/05 05:50:15;;;;;;;6.15;5.38;;;;;;;18.29;67.94;97612.31;4964694;28;20089;-62
2021/06/05 05:52:41;;;;;;;7.22;5.45;;;;;;;18.54;65.93;97601.03;4964732;28;20045;-61
2021/06/05 05:55:09;;;;;;;6.57;4.82;;;;;;;18.63;65.63;97595.75;4962644;28;20031;-63
2021/06/05 05:57:35;;;;;;;6.03;5.43;;;;;;;18.44;66.87;97602.66;4964766;28;20038;-61
2021/06/05 06:00:03;;;;;;;6.55;5.15;;;;;;;18.61;66.71;97596.16;4949296;28;20528;-61
2021/06/05 06:02:29;;;;;;;6.70;5.88;;;;;;;18.28;66.82;97599.50;4945095;28;20047;-61
2021/06/05 06:04:54;;;;;;;12.25;6.35;;;;;;;18.45;67.05;97601.44;4945182;28;20090;-61
2021/06/05 06:07:20;;;;;;;11.00;6.72;;;;;;;18.58;67.21;97608.22;4945345;28;20418;-62
2021/06/05 06:09:45;;;;;;;6.32;5.28;;;;;;;18.88;65.23;97600.00;4962025;28;20093;-61
2021/06/05 06:12:11;;;;;;;9.45;5.70;;;;;;;18.82;65.13;97539.91;4959279;28;20113;-59
2021/06/05 06:14:36;;;;;;;6.95;5.82;;;;;;;19.01;66.77;97587.09;4962323;28;20066;-60
2021/06/05 06:17:03;;;;;;;6.07;5.45;;;;;;;18.72;65.99;97512.69;4964040;28;20038;-61
2021/06/05 06:19:29;;;;;;;11.43;6.45;;;;;;;19.50;64.55;97585.91;4950565;28;20102;-59
2021/06/05 06:21:54;;;;;;;7.18;6.47;;;;;;;19.32;63.31;97545.91;4965299;28;20035;-62
2021/06/05 06:24:20;;;;;;;7.80;5.97;;;;;;;19.92;62.07;97584.66;4966411;28;20138;-60
2021/06/05 06:26:45;;;;;;;7.38;6.22;;;;;;;19.71;61.41;97523.03;4964230;28;20039;-61
2021/06/05 06:29:20;;;;;;;8.27;5.95;;;;;;;20.01;61.58;97542.78;4953382;28;20030;-65
2021/06/05 06:31:47;;;;;;;7.03;5.65;;;;;;;19.83;61.16;97502.81;4966738;28;20054;-63
2021/06/05 06:34:15;;;;;;;9.60;5.70;;;;;;;20.04;61.19;97530.69;4965516;28;20042;-63
2021/06/05 06:36:43;;;;;;;6.35;5.75;;;;;;;20.54;60.96;97574.69;4965263;28;20050;-63
2021/06/05 06:39:10;;;;;;;9.05;6.40;;;;;;;20.53;60.14;97524.44;4965176;28;20039;-64
2021/06/05 06:41:37;;;;;;;6.68;6.18;;;;;;;21.04;55.54;97580.41;4967549;28;20070;-61
2021/06/05 06:44:04;;;;;;;6.43;5.82;;;;;;;20.67;56.21;97491.25;4967398;28;20121;-62
2021/06/05 06:46:34;;;;;;;6.80;5.88;;;;;;;21.32;55.38;97557.41;4964581;28;20042;-67
2021/06/05 06:49:01;;;;;;;6.55;5.70;;;;;;;21.51;54.95;97556.69;4967395;28;20069;-62
2021/06/05 06:51:27;;;;;;;5.88;5.25;;;;;;;21.64;53.89;97560.44;4964968;28;20521;-62
2021/06/05 06:53:53;;;;;;;7.13;6.40;;;;;;;21.66;54.09;97560.81;4967363;28;20502;-60
2021/06/05 06:56:19;;;;;;;20.50;14.23;;;;;;;21.61;54.01;97549.25;4966947;28;20038;-63
2021/06/05 06:58:46;;;;;;;12.02;8.23;;;;;;;21.57;53.23;97512.66;4967235;28;20122;-66
2021/06/05 07:01:12;;;;;;;7.63;5.78;;;;;;;21.76;53.15;97540.13;4966863;28;20034;-60
2021/06/05 07:03:38;;;;;;;8.75;6.05;;;;;;;21.05;54.46;97494.69;4966612;28;20034;-67
2021/06/05 07:06:05;;;;;;;6.03;5.40;;;;;;;21.59;53.89;97535.56;4957134;28;20035;-64
2021/06/05 07:08:39;;;;;;;5.82;5.20;;;;;;;21.94;50.99;97528.50;4961386;28;20038;-63
2021/06/05 07:11:08;;;;;;;4.55;4.25;;;;;;;22.19;44.07;97529.56;4966115;28;20397;-63
2021/06/05 07:13:34;;;;;;;4.68;4.28;;;;;;;22.29;43.67;97517.25;4965982;28;20398;-67
2021/06/05 07:16:00;;;;;;;5.38;4.43;;;;;;;22.69;43.72;97534.16;4966110;28;20496;-67
2021/06/05 07:18:28;;;;;;;7.53;4.68;;;;;;;22.85;42.12;97531.38;4964302;28;20051;-65
2021/06/05 07:20:54;;;;;;;6.18;4.25;;;;;;;22.74;39.30;97474.31;4966202;28;20493;-64
2021/06/05 07:23:22;;;;;;;4.85;4.45;;;;;;;23.32;39.21;97533.47;4967193;28;20037;-65
2021/06/05 07:25:49;;;;;;;5.90;4.75;;;;;;;23.43;38.63;97533.19;4965847;28;20235;-65
2021/06/05 07:28:26;;;;;;;5.28;4.53;;;;;;;23.62;38.33;97529.44;4965397;28;20365;-69
2021/06/05 07:30:53;;;;;;;5.18;4.68;;;;;;;23.10;38.42;97410.03;4964029;28;20042;-59
2021/06/05 07:33:20;;;;;;;5.88;5.38;;;;;;;23.92;37.84;97526.19;4966265;28;20507;-68
2021/06/05 07:35:46;;;;;;;5.45;4.95;;;;;;;24.07;35.38;97523.78;4965531;28;20146;-58
2021/06/05 07:38:14;;;;;;;11.65;5.43;;;;;;;23.62;37.24;97518.13;4964550;28;20561;-64
2021/06/05 07:40:42;;;;;;;4.95;4.55;;;;;;;23.95;35.88;97513.97;4966462;28;20049;-62
2021/06/05 07:43:08;;;;;;;8.68;6.00;;;;;;;23.93;35.82;97510.81;4966713;28;20089;-65
2021/06/05 07:45:34;;;;;;;6.05;5.15;;;;;;;24.11;36.08;97510.31;4966326;28;20034;-58
2021/06/05 07:48:00;;;;;;;4.97;4.57;;;;;;;22.94;37.19;97483.50;4964792;28;20031;-66
2021/06/05 07:50:26;;;;;;;9.30;5.63;;;;;;;23.58;38.96;97511.78;4956246;28;20409;-59
2021/06/05 07:52:52;;;;;;;4.88;4.57;;;;;;;23.08;38.63;97517.09;4966636;28;20045;-65
2021/06/05 07:55:18;;;;;;;8.40;6.25;;;;;;;23.77;36.94;97519.34;4965971;28;20054;-65
2021/06/05 07:57:44;;;;;;;4.85;4.55;;;;;;;24.44;36.49;97512.56;4966243;28;20472;-57
2021/06/05 08:00:19;;;;;;;9.38;7.55;;;;;;;24.93;36.40;97505.38;4963498;28;20041;-58
2021/06/05 08:02:45;;;;;;;6.25;5.65;;;;;;;25.80;35.38;97517.06;4966306;28;20525;-67
2021/06/05 08:05:11;;;;;;;6.20;5.43;;;;;;;26.00;33.84;97474.97;4965717;28;20039;-65
2021/06/05 08:07:37;;;;;;;11.38;8.18;;;;;;;25.37;34.55;97505.59;4966028;28;20266;-67
2021/06/05 08:10:07;;;;;;;10.55;8.73;;;;;;;25.18;33.72;97504.56;4964363;28;20106;-67
2021/06/05 08:12:33;;;;;;;12.10;11.20;;;;;;;24.84;35.62;97490.28;4979085;28;20039;-65
2021/06/05 08:14:59;;;;;;;6.35;5.75;;;;;;;25.35;35.88;97508.09;4964005;28;20039;-65
2021/06/05 08:17:24;;;;;;;6.15;5.55;;;;;;;25.80;34.14;97500.03;4962796;28;20517;-66
2021/06/05 08:19:50;;;;;;;6.15;5.22;;;;;;;25.38;33.25;97444.75;4961807;28;20522;-64
2021/06/05 08:22:17;;;;;;;7.63;6.88;;;;;;;24.00;32.87;97209.78;4964305;28;20316;-66
2021/06/05 08:24:42;;;;;;;5.97;5.47;;;;;;;25.76;32.72;97505.00;4962718;28;20063;-65
2021/06/05 08:27:08;;;;;;;8.68;5.63;;;;;;;25.11;34.07;97460.22;4964612;28;20046;-65
2021/06/05 08:29:33;;;;;;;7.65;5.55;;;;;;;25.22;33.85;97437.97;4964441;28;20038;-66
2021/06/05 08:31:58;;;;;;;5.90;5.45;;;;;;;25.31;33.60;97511.00;4964572;28;20605;-64
2021/06/05 08:34:25;;;;;;;6.13;5.43;;;;;;;24.65;33.60;97381.56;4964644;28;20027;-65
2021/06/05 08:36:51;;;;;;;6.18;5.57;;;;;;;25.62;33.88;97502.69;4962598;28;20043;-65
2021/06/05 08:39:17;;;;;;;5.80;5.40;;;;;;;25.76;33.69;97499.34;4965405;28;20074;-65
2021/06/05 08:41:47;;;;;;;6.32;5.70;;;;;;;25.98;33.47;97494.47;4979669;28;20357;-65
2021/06/05 08:44:35;;;;;;;5.43;4.88;;;;;;;25.77;33.24;97459.13;4963624;28;20030;-65
2021/06/05 08:47:12;;;;;;;7.28;6.68;;;;;;;25.30;34.81;97501.72;4965437;28;20110;-65
2021/06/05 08:49:41;;;;;;;5.32;5.03;;;;;;;24.87;34.09;97501.53;4965266;28;20031;-66
2021/06/05 08:52:17;;;;;;;5.75;5.25;;;;;;;24.53;35.41;97490.00;4963532;28;20489;-66
2021/06/05 08:55:18;;;;;;;6.20;5.53;;;;;;;24.24;34.49;97429.03;4965154;28;20031;-67
2021/06/05 08:57:48;;;;;;;6.75;5.30;;;;;;;25.44;34.59;97493.97;4967998;28;20594;-66
2021/06/05 09:00:22;;;;;;;6.07;5.50;;;;;;;26.12;32.34;97488.31;4965179;28;20031;-64
2021/06/05 09:02:52;;;;;;;5.57;5.07;;;;;;;25.93;31.81;97418.41;4965178;28;20034;-67
2021/06/05 09:05:22;;;;;;;5.75;5.03;;;;;;;26.50;32.87;97477.50;4964726;28;20035;-65
2021/06/05 09:07:47;;;;;;;6.13;5.35;;;;;;;26.63;33.43;97483.91;4964866;28;20398;-65
2021/06/05 09:10:17;;;;;;;5.88;5.47;;;;;;;26.07;32.93;97406.53;4964439;28;20027;-65
2021/06/05 09:12:42;;;;;;;6.38;5.78;;;;;;;25.49;32.44;97334.53;4964969;28;20042;-65
2021/06/05 09:15:19;;;;;;;6.13;5.65;;;;;;;26.32;32.68;97463.19;4964779;28;20414;-64
2021/06/05 09:17:47;;;;;;;6.78;5.53;;;;;;;26.22;32.25;97475.75;4965439;28;20421;-64
2021/06/05 09:20:14;;;;;;;6.18;5.57;;;;;;;26.30;31.85;97454.34;4964312;28;20059;-65
2021/06/05 09:22:44;;;;;;;5.97;5.68;;;;;;;26.82;31.38;97468.53;4963462;28;20035;-65
2021/06/05 09:25:40;;;;;;;8.80;5.47;;;;;;;27.30;29.16;97464.91;4964420;28;20030;-65
2021/06/05 09:28:17;;;;;;;6.45;5.75;;;;;;;27.70;29.14;97459.09;4963190;28;20121;-63
2021/06/05 09:30:45;;;;;;;5.80;5.35;;;;;;;28.40;28.72;97460.81;4962545;28;20061;-65
2021/06/05 09:33:13;;;;;;;6.82;6.32;;;;;;;28.35;27.95;97413.00;4963259;28;20506;-67
2021/06/05 09:35:45;;;;;;;7.03;6.20;;;;;;;27.57;28.78;97413.72;4964793;28;20041;-64
2021/06/05 09:38:16;;;;;;;6.38;5.95;;;;;;;28.54;27.55;97448.78;4963042;28;20430;-64
2021/06/05 09:41:07;;;;;;;6.03;5.68;;;;;;;27.96;28.92;97441.25;4963981;28;20073;-65
2021/06/05 09:43:33;;;;;;;6.35;5.93;;;;;;;27.79;29.00;97428.56;4964761;28;20501;-65
2021/06/05 09:46:10;;;;;;;6.38;5.78;;;;;;;27.30;29.39;97356.78;4964264;28;20038;-64
2021/06/05 09:48:39;;;;;;;6.45;6.05;;;;;;;27.73;28.57;97436.19;4963251;28;20122;-64
2021/06/05 09:51:28;;;;;;;6.18;5.78;;;;;;;27.83;28.54;97434.91;4964663;28;20538;-66
2021/06/05 09:54:12;;;;;;;6.95;6.38;;;;;;;26.70;29.96;97319.53;4964541;28;20466;-66
2021/06/05 09:56:45;;;;;;;6.50;5.90;;;;;;;27.26;29.81;97435.81;4967119;28;20443;-66
2021/06/05 09:59:26;;;;;;;;;;;;;;;27.67;29.82;97438.09;4968721;28;20039;-64
2021/06/05 10:01:59;;;;;;;5.68;5.38;;;;;;;26.40;29.95;97345.94;4966662;28;19936;-65
2021/06/05 10:04:27;;;;;;;6.88;6.28;;;;;;;27.21;30.25;97416.50;4968580;28;20113;-65
2021/06/05 10:06:56;;;;;;;6.00;5.50;;;;;;;27.48;30.27;97418.63;4966763;28;20043;-65
2021/06/05 10:09:25;;;;;;;6.30;5.80;;;;;;;28.18;30.10;97410.50;4966405;28;20039;-64
2021/06/05 10:11:52;;;;;;;7.32;6.82;;;;;;;28.49;29.38;97420.91;4965922;28;20043;-63
2021/06/05 10:14:38;;;;;;;6.93;5.97;;;;;;;27.78;29.01;97414.81;4967762;28;20473;-64
2021/06/05 10:17:17;;;;;;;6.55;5.95;;;;;;;27.57;28.53;97395.84;4970039;28;20146;-66
2021/06/05 10:19:52;;;;;;;5.80;5.40;;;;;;;27.65;28.96;97420.69;4967918;28;20169;-65
2021/06/05 10:22:19;;;;;;;6.30;5.72;;;;;;;27.48;29.03;97419.41;4967972;28;20817;-64
2021/06/05 10:24:47;;;;;;;6.13;5.72;;;;;;;27.28;29.18;97421.94;4968238;28;20031;-65
2021/06/05 10:27:18;;;;;;;7.00;5.65;;;;;;;27.38;29.65;97414.19;4966196;28;20469;-65
2021/06/05 10:29:46;;;;;;;7.47;6.10;;;;;;;27.14;29.67;97416.78;4967911;28;20058;-64
2021/06/05 10:32:36;;;;;;;6.10;5.80;;;;;;;25.90;31.00;97373.91;4965550;28;20046;-65
2021/06/05 10:35:13;;;;;;;6.18;5.68;;;;;;;26.58;30.61;97390.69;4966090;28;20030;-66
2021/06/05 10:37:40;;;;;;;6.82;6.22;;;;;;;26.90;30.95;97412.97;4966252;28;20226;-66
2021/06/05 10:40:15;;;;;;;6.95;5.88;;;;;;;26.95;30.73;97381.06;4967543;28;20034;-64
2021/06/05 10:42:41;;;;;;;6.32;5.70;;;;;;;27.09;30.16;97408.91;4968152;28;20109;-64
2021/06/05 10:45:12;;;;;;;5.95;5.65;;;;;;;26.96;30.36;97359.09;4967363;28;20640;-65
2021/06/05 10:47:54;;;;;;;5.53;5.22;;;;;;;27.36;30.38;97360.56;4967815;28;20475;-66
2021/06/05 10:50:26;;;;;;;7.05;6.30;;;;;;;27.94;30.79;97406.78;4967126;28;20557;-65
2021/06/05 10:52:58;;;;;;;6.45;6.03;;;;;;;28.00;30.02;97399.16;4965584;28;20090;-66
2021/06/05 10:55:38;;;;;;;5.65;5.25;;;;;;;27.74;29.23;97391.41;4967076;28;20043;-66
2021/06/05 10:58:12;;;;;;;6.20;5.75;;;;;;;27.89;29.61;97389.53;4966214;28;20023;-66
2021/06/05 11:01:06;;;;;;;6.32;5.68;;;;;;;27.47;29.95;97306.84;4967246;28;20137;-65
2021/06/05 11:03:32;;;;;;;5.85;5.53;;;;;;;27.69;30.01;97395.69;4948751;28;20086;-66
2021/06/05 11:06:15;;;;;;;6.03;5.63;;;;;;;27.01;30.95;97387.72;4947670;28;20800;-66
2021/06/05 11:08:48;;;;;;;6.03;5.72;;;;;;;26.99;32.53;97383.72;4945263;28;20035;-66
2021/06/05 11:11:32;;;;;;;7.37;6.63;;;;;;;26.94;32.38;97373.78;4947906;28;20490;-67
2021/06/05 11:13:59;;;;;;;6.75;6.18;;;;;;;27.21;32.14;97370.97;4946511;28;20047;-66
2021/06/05 11:16:58;;;;;;;5.82;5.32;;;;;;;27.30;32.60;97368.16;4947180;28;20517;-64
2021/06/05 11:19:30;;;;;;;6.72;6.13;;;;;;;27.04;31.14;97366.84;4947588;28;20575;-64
2021/06/05 11:22:01;;;;;;;5.95;5.65;;;;;;;26.98;30.80;97374.44;4947719;28;20051;-64
2021/06/05 11:24:27;;;;;;;5.95;5.55;;;;;;;26.90;30.40;97355.28;4947632;28;20035;-65
2021/06/05 11:26:55;;;;;;;5.95;5.55;;;;;;;27.07;30.47;97365.91;4947447;28;20620;-66
2021/06/05 11:29:20;;;;;;;6.45;5.82;;;;;;;27.49;29.81;97368.97;4947859;28;20814;-67
2021/06/05 11:31:48;;;;;;;6.28;5.68;;;;;;;27.73;29.34;97367.84;4945815;28;20399;-67
2021/06/05 11:34:31;;;;;;;6.10;5.68;;;;;;;27.93;28.93;97365.28;4947546;28;20499;-66
2021/06/05 11:37:02;;;;;;;7.00;6.10;;;;;;;27.74;31.09;97346.63;4945719;28;20446;-66
2021/06/05 11:39:30;;;;;;;6.72;6.00;;;;;;;27.38;32.17;97375.13;4945492;29;20143;-66
2021/06/05 11:41:59;;;;;;;6.57;6.13;;;;;;;26.68;33.26;97327.75;4945463;28;20516;-65